createdAt,value
2018-06-30T00:01:36.891Z,19.97
2018-06-30T00:04:06.250Z,20.07
2018-06-30T00:06:35.590Z,20.04
2018-06-30T00:09:08.148Z,20.12
2018-06-30T00:11:37.884Z,20.11
2018-06-30T00:14:07.250Z,20.11
2018-06-30T00:16:36.597Z,20.11
2018-06-30T00:19:05.966Z,20.10
2018-06-30T00:21:35.338Z,19.99
2018-06-30T00:24:04.400Z,19.99
2018-06-30T00:26:33.748Z,19.95
2018-06-30T00:29:03.094Z,19.77
2018-06-30T00:31:32.433Z,19.75
2018-06-30T00:34:01.480Z,19.83
2018-06-30T00:36:30.942Z,19.82
2018-06-30T00:39:00.285Z,19.84
2018-06-30T00:41:29.616Z,19.87
2018-06-30T00:43:58.990Z,19.81
2018-06-30T00:46:28.321Z,19.83
2018-06-30T00:48:57.696Z,19.83
2018-06-30T00:51:27.019Z,19.82
2018-06-30T00:53:56.347Z,19.65
2018-06-30T00:56:25.687Z,19.46
2018-06-30T00:58:55.072Z,19.36
2018-06-30T01:01:24.458Z,19.24
2018-06-30T01:03:53.791Z,19.26
2018-06-30T01:06:23.116Z,19.21
2018-06-30T01:08:52.460Z,19.17
2018-06-30T01:11:21.794Z,19.19
2018-06-30T01:13:51.154Z,19.14
2018-06-30T01:16:20.476Z,19.19
2018-06-30T01:18:49.798Z,19.30
2018-06-30T01:21:19.393Z,19.21
2018-06-30T01:23:48.724Z,19.24
2018-06-30T01:26:18.092Z,19.16
2018-06-30T01:28:47.403Z,18.98
2018-06-30T01:31:16.773Z,18.81
2018-06-30T01:33:46.123Z,18.78
2018-06-30T01:36:15.524Z,18.66
2018-06-30T01:38:44.870Z,18.67
2018-06-30T01:41:14.172Z,18.51
2018-06-30T01:43:43.496Z,18.42
2018-06-30T01:46:12.850Z,18.32
2018-06-30T01:48:42.272Z,18.24
2018-06-30T01:51:11.628Z,18.18
2018-06-30T01:53:41.002Z,17.99
2018-06-30T01:56:10.317Z,18.06
2018-06-30T01:58:40.001Z,18.05
2018-06-30T02:01:09.718Z,18.00
2018-06-30T02:03:39.365Z,17.86
2018-06-30T02:06:09.077Z,17.80
2018-06-30T02:08:38.380Z,17.85
2018-06-30T02:11:07.940Z,17.85
2018-06-30T02:13:37.301Z,17.98
2018-06-30T02:16:06.661Z,18.06
2018-06-30T02:18:36.021Z,18.16
2018-06-30T02:21:05.395Z,18.17
2018-06-30T02:23:34.723Z,18.26
2018-06-30T02:26:04.097Z,18.28
2018-06-30T02:28:33.439Z,18.33
2018-06-30T02:31:02.785Z,18.37
2018-06-30T02:33:32.149Z,18.39
2018-06-30T02:36:01.500Z,18.38
2018-06-30T02:38:30.949Z,18.35
2018-06-30T02:41:00.288Z,18.33
2018-06-30T02:43:29.611Z,18.31
2018-06-30T02:45:59.016Z,18.34
2018-06-30T02:48:28.358Z,18.29
2018-06-30T02:50:57.709Z,18.32
2018-06-30T02:53:27.071Z,18.28
2018-06-30T02:55:56.413Z,18.32
2018-06-30T02:58:25.774Z,18.10
2018-06-30T03:00:55.124Z,18.10
2018-06-30T03:03:24.479Z,18.10
2018-06-30T03:05:53.908Z,18.03
2018-06-30T03:08:23.239Z,18.01
2018-06-30T03:10:52.659Z,17.99
2018-06-30T03:13:22.001Z,17.93
2018-06-30T03:15:51.361Z,17.95
2018-06-30T03:18:27.358Z,17.96
2018-06-30T03:20:56.747Z,17.97
2018-06-30T03:23:26.144Z,17.94
2018-06-30T03:25:55.463Z,17.93
2018-06-30T03:28:24.785Z,18.02
2018-06-30T03:30:54.140Z,17.97
2018-06-30T03:33:23.457Z,17.98
2018-06-30T03:35:52.781Z,17.95
2018-06-30T03:38:22.103Z,17.95
2018-06-30T03:40:51.420Z,17.89
2018-06-30T03:43:20.951Z,17.98
2018-06-30T03:45:50.045Z,17.96
2018-06-30T03:48:19.383Z,17.96
2018-06-30T03:50:48.745Z,18.00
2018-06-30T03:53:18.056Z,18.08
2018-06-30T03:55:47.409Z,18.09
2018-06-30T03:58:16.746Z,18.07
2018-06-30T04:00:46.072Z,18.06
2018-06-30T04:03:15.427Z,18.11
2018-06-30T04:05:44.748Z,18.05
2018-06-30T04:08:14.065Z,18.07
2018-06-30T04:10:43.115Z,18.18
2018-06-30T04:13:12.436Z,18.14
2018-06-30T04:15:41.800Z,18.16
2018-06-30T04:18:11.168Z,18.09
2018-06-30T04:20:40.520Z,18.23
2018-06-30T04:23:09.845Z,18.18
2018-06-30T04:25:39.179Z,18.22
2018-06-30T04:28:08.495Z,18.29
2018-06-30T04:30:37.880Z,18.28
2018-06-30T04:33:07.799Z,18.33
2018-06-30T04:35:37.232Z,18.39
2018-06-30T04:38:06.727Z,18.42
2018-06-30T04:40:36.070Z,18.59
2018-06-30T04:43:05.583Z,18.61
2018-06-30T04:45:34.953Z,18.69
2018-06-30T04:48:04.343Z,18.73
2018-06-30T04:50:33.685Z,18.76
2018-06-30T04:53:03.000Z,18.79
2018-06-30T04:55:32.339Z,18.88
2018-06-30T04:58:01.685Z,19.04
2018-06-30T05:00:31.014Z,19.19
2018-06-30T05:03:00.341Z,19.15
2018-06-30T05:05:29.679Z,19.18
2018-06-30T05:07:59.089Z,19.26
2018-06-30T05:10:28.445Z,19.30
2018-06-30T05:12:57.854Z,19.36
2018-06-30T05:15:27.133Z,19.49
2018-06-30T05:17:57.005Z,19.38
2018-06-30T05:20:26.635Z,19.33
2018-06-30T05:22:56.311Z,19.41
2018-06-30T05:25:26.172Z,19.46
2018-06-30T05:27:55.891Z,19.60
2018-06-30T05:30:25.603Z,19.53
2018-06-30T05:32:55.411Z,19.63
2018-06-30T05:35:25.050Z,19.58
2018-06-30T05:37:54.932Z,19.69
2018-06-30T05:40:24.316Z,19.78
2018-06-30T05:42:53.653Z,19.73
2018-06-30T05:45:22.992Z,19.85
2018-06-30T05:47:52.348Z,19.72
2018-06-30T05:50:21.796Z,19.92
2018-06-30T05:52:51.156Z,19.98
2018-06-30T05:55:20.483Z,19.91
2018-06-30T05:57:49.795Z,20.09
2018-06-30T06:00:19.133Z,20.16
2018-06-30T06:02:48.202Z,20.31
2018-06-30T06:05:17.529Z,20.45
2018-06-30T06:07:46.873Z,20.47
2018-06-30T06:10:16.378Z,20.31
2018-06-30T06:12:45.719Z,20.36
2018-06-30T06:15:15.015Z,20.60
2018-06-30T06:17:44.473Z,20.80
2018-06-30T06:20:13.854Z,20.94
2018-06-30T06:22:43.193Z,20.78
2018-06-30T06:25:12.536Z,20.91
2018-06-30T06:27:41.874Z,21.07
2018-06-30T06:30:11.260Z,20.95
2018-06-30T06:32:40.676Z,21.15
2018-06-30T06:35:09.919Z,21.12
2018-06-30T06:37:39.244Z,21.03
2018-06-30T06:47:30.146Z,21.25
2018-06-30T06:49:59.467Z,21.58
2018-06-30T06:52:28.784Z,21.47
2018-06-30T06:54:58.112Z,21.46
2018-06-30T06:57:27.471Z,21.66
2018-06-30T06:59:56.790Z,21.65
2018-06-30T07:02:26.146Z,21.34
2018-06-30T07:04:55.487Z,21.60
2018-06-30T07:07:24.817Z,21.65
2018-06-30T07:09:54.312Z,21.74
2018-06-30T07:12:23.447Z,22.08
2018-06-30T07:14:52.788Z,22.25
2018-06-30T07:17:22.132Z,22.60
2018-06-30T07:19:51.449Z,22.85
2018-06-30T07:22:20.823Z,23.04
2018-06-30T07:24:50.128Z,22.88
2018-06-30T07:27:19.471Z,23.16
2018-06-30T07:29:48.783Z,23.31
2018-06-30T07:32:18.147Z,23.10
2018-06-30T07:34:47.480Z,23.31
2018-06-30T07:37:16.880Z,23.26
2018-06-30T07:39:46.180Z,22.99
2018-06-30T07:42:15.562Z,23.12
2018-06-30T07:44:44.877Z,22.97
2018-06-30T07:47:14.224Z,22.79
2018-06-30T07:49:43.669Z,22.72
2018-06-30T07:52:12.971Z,22.81
2018-06-30T07:54:42.303Z,22.84
2018-06-30T07:57:11.703Z,22.78
2018-06-30T07:59:41.045Z,22.71
2018-06-30T08:02:10.467Z,22.66
2018-06-30T08:04:39.716Z,22.51
2018-06-30T08:07:09.048Z,22.64
2018-06-30T08:09:38.576Z,22.67
2018-06-30T08:12:07.920Z,22.34
2018-06-30T08:14:37.337Z,22.03
2018-06-30T08:17:06.792Z,22.00
2018-06-30T08:19:36.120Z,22.23
2018-06-30T08:22:05.552Z,22.33
2018-06-30T08:24:34.872Z,22.38
2018-06-30T08:27:04.245Z,22.46
2018-06-30T08:29:33.562Z,22.45
2018-06-30T08:32:02.897Z,22.66
2018-06-30T08:34:32.304Z,22.59
2018-06-30T08:37:01.616Z,22.88
2018-06-30T08:39:30.968Z,22.89
2018-06-30T08:42:00.286Z,22.77
2018-06-30T08:44:29.628Z,22.92
2018-06-30T08:46:58.972Z,22.62
2018-06-30T08:49:28.295Z,22.60
2018-06-30T08:51:57.623Z,22.82
2018-06-30T08:54:26.946Z,22.65
2018-06-30T08:56:56.356Z,22.74
2018-06-30T08:59:25.687Z,23.06
2018-06-30T09:01:54.996Z,23.21
2018-06-30T09:04:24.423Z,23.22
2018-06-30T09:06:53.743Z,23.55
2018-06-30T09:09:23.060Z,23.21
2018-06-30T09:11:52.401Z,23.49
2018-06-30T09:14:21.711Z,23.62
2018-06-30T09:16:51.056Z,23.70
2018-06-30T09:19:20.395Z,23.96
2018-06-30T09:21:49.729Z,24.20
2018-06-30T09:24:19.077Z,24.08
2018-06-30T09:26:48.562Z,24.26
2018-06-30T09:29:17.903Z,24.47
2018-06-30T09:31:47.249Z,24.40
2018-06-30T09:34:16.575Z,24.25
2018-06-30T09:36:45.941Z,24.42
2018-06-30T09:39:15.245Z,24.59
2018-06-30T09:41:44.581Z,24.47
2018-06-30T09:44:13.937Z,24.57
2018-06-30T09:46:43.347Z,24.48
2018-06-30T09:49:12.679Z,24.53
2018-06-30T09:51:41.996Z,24.43
2018-06-30T09:54:11.323Z,24.37
2018-06-30T09:56:40.644Z,24.35
2018-06-30T09:59:10.007Z,24.39
2018-06-30T10:01:39.377Z,24.44
2018-06-30T10:04:08.719Z,24.63
2018-06-30T10:06:38.057Z,24.56
2018-06-30T10:09:10.438Z,24.66
2018-06-30T10:11:40.255Z,24.82
2018-06-30T10:14:09.584Z,24.87
2018-06-30T10:16:38.914Z,24.83
2018-06-30T10:19:08.274Z,24.87
2018-06-30T10:21:37.593Z,24.82
2018-06-30T10:24:06.956Z,24.87
2018-06-30T10:26:36.289Z,25.00
2018-06-30T10:29:05.615Z,24.82
2018-06-30T10:31:34.955Z,24.98
2018-06-30T10:34:04.316Z,24.83
2018-06-30T10:36:33.729Z,25.02
2018-06-30T10:39:03.084Z,25.32
2018-06-30T10:41:32.437Z,25.29
2018-06-30T10:44:01.774Z,25.49
2018-06-30T10:46:31.137Z,25.13
2018-06-30T10:49:00.487Z,25.42
2018-06-30T10:51:29.823Z,25.48
2018-06-30T10:53:59.188Z,25.50
2018-06-30T10:56:28.516Z,25.77
2018-06-30T10:58:57.861Z,25.86
2018-06-30T11:01:27.199Z,25.83
2018-06-30T11:03:56.576Z,25.65
2018-06-30T11:06:25.921Z,25.83
2018-06-30T11:08:55.477Z,25.96
2018-06-30T11:11:24.850Z,26.24
2018-06-30T11:13:54.587Z,26.43
2018-06-30T11:16:23.921Z,25.98
2018-06-30T11:18:53.251Z,26.38
2018-06-30T11:21:22.676Z,26.65
2018-06-30T11:23:52.017Z,26.66
2018-06-30T11:26:21.392Z,26.55
2018-06-30T11:28:50.885Z,26.26
2018-06-30T11:31:20.286Z,26.73
2018-06-30T11:33:49.672Z,26.56
2018-06-30T11:36:18.941Z,26.58
2018-06-30T11:38:48.278Z,26.56
2018-06-30T11:41:17.603Z,26.57
2018-06-30T11:43:46.960Z,26.60
2018-06-30T11:46:16.282Z,26.69
2018-06-30T11:48:45.628Z,26.95
2018-06-30T11:51:14.966Z,27.15
2018-06-30T11:53:44.312Z,27.21
2018-06-30T11:56:13.719Z,27.43
2018-06-30T11:58:43.052Z,26.86
2018-06-30T12:01:12.388Z,26.70
2018-06-30T12:03:41.751Z,26.75
2018-06-30T12:06:11.089Z,27.00
2018-06-30T12:08:40.439Z,27.00
2018-06-30T12:11:09.772Z,27.15
2018-06-30T12:13:39.178Z,27.21
2018-06-30T12:16:08.617Z,27.53
2018-06-30T12:18:37.941Z,27.74
2018-06-30T12:21:07.392Z,27.89
2018-06-30T12:23:36.956Z,27.94
2018-06-30T12:26:06.446Z,28.28
2018-06-30T12:28:42.294Z,28.31
2018-06-30T12:31:11.650Z,28.32
2018-06-30T12:33:41.025Z,28.34
2018-06-30T12:36:10.376Z,28.40
2018-06-30T12:38:39.736Z,28.26
2018-06-30T12:41:09.072Z,28.10
2018-06-30T12:43:38.404Z,28.10
2018-06-30T12:46:07.785Z,28.37
2018-06-30T12:48:37.161Z,28.58
2018-06-30T12:51:06.679Z,28.66
2018-06-30T12:53:36.027Z,28.96
2018-06-30T12:56:05.925Z,28.92
2018-06-30T12:58:35.264Z,28.91
2018-06-30T13:01:04.630Z,29.19
2018-06-30T13:03:33.719Z,29.11
2018-06-30T13:06:03.072Z,29.26
2018-06-30T13:08:32.399Z,28.97
2018-06-30T13:11:01.780Z,29.25
2018-06-30T13:13:31.100Z,29.12
2018-06-30T13:16:00.519Z,28.84
2018-06-30T13:18:29.885Z,29.05
2018-06-30T13:20:59.887Z,29.34
2018-06-30T13:23:29.236Z,29.55
2018-06-30T13:25:58.565Z,29.71
2018-06-30T13:28:27.972Z,29.71
2018-06-30T13:30:57.317Z,30.04
2018-06-30T13:33:26.660Z,29.78
2018-06-30T13:35:56.060Z,29.53
2018-06-30T13:38:26.261Z,29.63
2018-06-30T13:40:55.667Z,30.08
2018-06-30T13:43:25.457Z,30.38
2018-06-30T13:45:54.804Z,30.53
2018-06-30T13:48:24.200Z,31.07
2018-06-30T13:50:53.569Z,31.28
2018-06-30T13:53:23.033Z,31.58
2018-06-30T13:55:52.396Z,31.47
2018-06-30T13:58:21.775Z,31.53
2018-06-30T14:00:51.138Z,31.57
2018-06-30T14:03:20.501Z,31.76
2018-06-30T14:05:49.856Z,33.01
2018-06-30T14:08:19.407Z,34.16
2018-06-30T14:10:49.069Z,34.51
2018-06-30T14:13:18.404Z,35.14
2018-06-30T14:15:47.776Z,36.00
2018-06-30T14:18:17.161Z,36.43
2018-06-30T14:20:46.462Z,36.84
2018-06-30T14:23:15.928Z,37.18
2018-06-30T14:25:45.399Z,37.29
2018-06-30T14:28:14.972Z,37.41
2018-06-30T14:30:44.339Z,37.59
2018-06-30T14:33:13.673Z,37.51
2018-06-30T14:35:43.012Z,37.90
2018-06-30T14:38:12.392Z,38.60
2018-06-30T14:40:41.744Z,37.53
2018-06-30T14:43:11.099Z,37.70
2018-06-30T14:45:40.459Z,38.39
2018-06-30T14:48:09.793Z,38.36
2018-06-30T14:50:39.158Z,38.01
2018-06-30T14:53:08.716Z,37.65
2018-06-30T14:55:38.061Z,38.22
2018-06-30T14:58:07.779Z,39.00
2018-06-30T15:00:37.231Z,38.89
2018-06-30T15:03:06.664Z,39.07
2018-06-30T15:05:35.997Z,39.47
2018-06-30T15:08:05.396Z,39.74
2018-06-30T15:10:34.785Z,39.37
2018-06-30T15:13:04.160Z,39.12
2018-06-30T15:15:33.699Z,39.66
2018-06-30T15:18:03.053Z,39.70
2018-06-30T15:20:32.409Z,40.23
2018-06-30T15:23:01.767Z,40.41
2018-06-30T15:25:31.120Z,38.81
2018-06-30T15:28:00.451Z,38.13
2018-06-30T15:30:29.763Z,38.23
2018-06-30T15:32:59.086Z,39.12
2018-06-30T15:35:28.432Z,39.45
2018-06-30T15:37:57.838Z,40.00
2018-06-30T15:40:27.161Z,40.08
2018-06-30T15:42:56.501Z,39.61
2018-06-30T15:45:25.868Z,39.13
2018-06-30T15:47:55.192Z,38.34
2018-06-30T15:50:24.552Z,39.74
2018-06-30T15:52:53.898Z,39.79
2018-06-30T15:55:23.246Z,38.09
2018-06-30T15:57:52.585Z,38.23
2018-06-30T16:00:21.903Z,38.52
2018-06-30T16:02:51.240Z,38.62
2018-06-30T16:05:20.554Z,38.47
2018-06-30T16:07:49.890Z,38.46
2018-06-30T16:10:19.229Z,38.77
2018-06-30T16:12:48.667Z,39.33
2018-06-30T16:15:18.000Z,39.38
2018-06-30T16:17:47.436Z,39.90
2018-06-30T16:20:16.777Z,40.48
2018-06-30T16:22:46.136Z,40.95
2018-06-30T16:25:15.476Z,40.79
2018-06-30T16:27:44.833Z,40.69
2018-06-30T16:30:14.177Z,40.33
2018-06-30T16:32:43.724Z,40.50
2018-06-30T16:35:13.112Z,40.16
2018-06-30T16:37:42.422Z,40.42
2018-06-30T16:40:11.806Z,39.96
2018-06-30T16:42:41.196Z,40.00
2018-06-30T16:45:10.559Z,39.88
2018-06-30T16:47:40.037Z,40.48
2018-06-30T16:50:09.401Z,40.20
2018-06-30T16:52:38.756Z,40.48
2018-06-30T16:55:08.148Z,40.35
2018-06-30T16:57:37.501Z,39.91
2018-06-30T17:00:08.137Z,40.32
2018-06-30T17:02:37.489Z,40.48
2018-06-30T17:05:07.205Z,40.86
2018-06-30T17:07:36.575Z,41.86
2018-06-30T17:10:06.033Z,41.23
2018-06-30T17:12:35.424Z,42.03
2018-06-30T17:15:05.030Z,41.46
2018-06-30T17:17:34.288Z,41.20
2018-06-30T17:20:03.694Z,40.29
2018-06-30T17:22:32.992Z,39.02
2018-06-30T17:25:02.329Z,39.49
2018-06-30T17:27:31.671Z,39.24
2018-06-30T17:30:01.025Z,39.27
2018-06-30T17:32:30.452Z,38.84
2018-06-30T17:34:59.827Z,39.65
2018-06-30T17:37:29.152Z,40.05
2018-06-30T17:39:58.480Z,40.05
2018-06-30T17:42:27.860Z,40.00
2018-06-30T17:44:57.199Z,39.86
2018-06-30T17:47:26.529Z,40.17
2018-06-30T17:49:55.862Z,39.19
2018-06-30T17:52:25.208Z,38.73
2018-06-30T17:54:54.816Z,38.11
2018-06-30T17:57:24.143Z,37.28
2018-06-30T17:59:53.467Z,35.85
2018-06-30T18:02:22.874Z,32.85
2018-06-30T18:04:52.237Z,31.76
2018-06-30T18:07:21.576Z,30.26
2018-06-30T18:09:50.900Z,29.52
2018-06-30T18:12:20.520Z,28.37
2018-06-30T18:14:49.861Z,28.19
2018-06-30T18:17:19.203Z,27.81
2018-06-30T18:19:48.531Z,27.39
2018-06-30T18:22:17.880Z,27.17
2018-06-30T18:24:47.008Z,26.95
2018-06-30T18:27:16.324Z,26.73
2018-06-30T18:29:45.731Z,26.52
2018-06-30T18:32:15.069Z,26.04
2018-06-30T18:34:44.421Z,25.91
2018-06-30T18:37:14.396Z,25.37
2018-06-30T18:39:43.737Z,25.22
2018-06-30T18:42:13.077Z,24.98
2018-06-30T18:44:42.514Z,24.71
2018-06-30T18:47:11.841Z,24.67
2018-06-30T18:49:41.181Z,24.51
2018-06-30T18:52:10.532Z,24.37
2018-06-30T18:54:39.864Z,24.19
2018-06-30T18:57:09.204Z,24.03
2018-06-30T18:59:38.549Z,23.93
2018-06-30T19:02:07.957Z,23.89
2018-06-30T19:04:37.305Z,23.82
2018-06-30T19:07:06.664Z,23.66
2018-06-30T19:09:36.000Z,23.58
2018-06-30T19:12:05.347Z,23.40
2018-06-30T19:14:34.740Z,23.31
2018-06-30T19:17:03.830Z,23.18
2018-06-30T19:19:33.205Z,23.12
2018-06-30T19:22:02.553Z,23.06
2018-06-30T19:24:31.997Z,22.94
2018-06-30T19:27:01.366Z,22.84
2018-06-30T19:29:30.769Z,22.64
2018-06-30T19:32:00.118Z,22.48
2018-06-30T19:34:29.469Z,22.47
2018-06-30T19:36:58.833Z,22.27
2018-06-30T19:39:28.155Z,22.11
2018-06-30T19:41:57.481Z,21.95
2018-06-30T19:44:26.824Z,21.90
2018-06-30T19:46:56.151Z,21.81
2018-06-30T19:49:25.578Z,21.62
2018-06-30T19:51:54.875Z,21.58
2018-06-30T19:54:24.363Z,21.49
2018-06-30T19:57:37.992Z,21.28
2018-06-30T20:00:07.547Z,20.98
2018-06-30T20:02:36.937Z,20.88
2018-06-30T20:05:06.356Z,20.74
2018-06-30T20:07:40.994Z,20.71
2018-06-30T20:10:10.323Z,20.69
2018-06-30T20:12:39.691Z,20.61
2018-06-30T20:15:09.029Z,20.55
2018-06-30T20:17:38.347Z,20.52
2018-06-30T20:20:07.895Z,20.36
2018-06-30T20:22:37.312Z,20.25
2018-06-30T20:25:07.039Z,20.25
2018-06-30T20:27:36.444Z,20.24
2018-06-30T20:30:06.772Z,20.16
2018-06-30T20:32:36.092Z,20.10
2018-06-30T20:35:05.408Z,20.00
2018-06-30T20:37:34.745Z,19.84
2018-06-30T20:40:04.103Z,19.77
2018-06-30T20:42:33.424Z,19.69
2018-06-30T20:45:02.813Z,19.50
2018-06-30T20:47:32.169Z,19.34
2018-06-30T20:50:01.554Z,19.20
2018-06-30T20:52:30.865Z,19.04
2018-06-30T20:55:00.208Z,18.98
2018-06-30T20:57:29.633Z,18.77
2018-06-30T20:59:59.016Z,18.71
2018-06-30T21:02:28.351Z,18.66
2018-06-30T21:04:57.712Z,18.54
2018-06-30T21:07:27.060Z,18.50
2018-06-30T21:09:56.400Z,18.42
2018-06-30T21:12:25.749Z,18.49
2018-06-30T21:14:55.100Z,18.40
2018-06-30T21:17:24.471Z,18.34
2018-06-30T21:19:53.756Z,18.22
2018-06-30T21:22:23.100Z,18.25
2018-06-30T21:24:52.427Z,18.17
2018-06-30T21:27:21.729Z,18.12
2018-06-30T21:29:51.076Z,18.22
2018-06-30T21:32:20.373Z,18.19
2018-06-30T21:34:49.715Z,18.11
2018-06-30T21:37:19.065Z,18.17
2018-06-30T21:39:48.420Z,18.19
2018-06-30T21:42:17.763Z,18.07
2018-06-30T21:44:47.087Z,18.17
2018-06-30T21:47:16.507Z,18.16
2018-06-30T21:49:45.839Z,17.98
2018-06-30T21:52:15.183Z,18.08
2018-06-30T21:54:44.547Z,18.06
2018-06-30T21:57:13.980Z,17.97
2018-06-30T21:59:43.397Z,17.89
2018-06-30T22:02:12.752Z,17.91
2018-06-30T22:04:42.427Z,17.88
2018-06-30T22:07:12.666Z,17.74
2018-06-30T22:09:42.353Z,17.81
2018-06-30T22:12:12.423Z,17.81
2018-06-30T22:14:42.050Z,17.90
2018-06-30T22:17:11.774Z,17.85
2018-06-30T22:19:41.383Z,17.86
2018-06-30T22:22:11.141Z,17.89
2018-06-30T22:24:40.814Z,17.82
2018-06-30T22:27:10.490Z,17.83
2018-06-30T22:29:40.150Z,17.81
2018-06-30T22:32:09.803Z,17.72
2018-06-30T22:34:39.523Z,17.74
2018-06-30T22:37:09.153Z,17.52
2018-06-30T22:40:23.306Z,17.42
2018-06-30T22:42:52.990Z,17.44
2018-06-30T22:45:22.642Z,17.33
2018-06-30T22:47:52.347Z,17.29
2018-06-30T22:50:21.950Z,17.36
2018-06-30T22:52:51.584Z,17.32
2018-06-30T22:55:21.265Z,17.36
2018-06-30T22:57:50.873Z,17.26
2018-06-30T23:00:20.532Z,17.35
2018-06-30T23:02:50.202Z,17.26
2018-06-30T23:05:19.895Z,17.29
2018-06-30T23:07:49.590Z,17.13
2018-06-30T23:10:19.224Z,17.05
2018-06-30T23:12:48.852Z,17.12
2018-06-30T23:15:18.523Z,17.03
2018-06-30T23:17:48.249Z,16.88
2018-06-30T23:20:17.932Z,16.88
2018-06-30T23:23:01.743Z,16.75
2018-06-30T23:25:32.389Z,16.72
2018-06-30T23:28:02.282Z,16.56
2018-06-30T23:30:32.356Z,16.54
2018-06-30T23:33:01.982Z,16.55
2018-06-30T23:35:32.528Z,16.47
2018-06-30T23:38:02.883Z,16.43
2018-06-30T23:40:32.597Z,16.36
2018-06-30T23:43:02.205Z,16.30
2018-06-30T23:45:31.889Z,16.20
2018-06-30T23:48:01.228Z,16.22
2018-06-30T23:50:30.593Z,16.25
2018-06-30T23:53:00.051Z,15.86
2018-06-30T23:55:29.403Z,16.15
2018-06-30T23:57:58.723Z,16.06
